Time,TemperatureF,DewpointF,PressureIn,WindDirection,WindDirectionDegrees,WindSpeedMPH,WindSpeedGustMPH,Humidity,HourlyPrecipIn,Conditions,Clouds,dailyrainin,SoftwareType,DateUTC
2013-11-11 00:04:00,34.5,21.3,30.15,NNW,335,7.6,8.7,58,0.00,,---,0.00,VWS V14.01,2013-11-11 06:04:00,
2013-11-11 00:09:00,34.0,20.0,30.15,North,4,6.3,11.0,56,0.00,,---,0.00,VWS V14.01,2013-11-11 06:09:00,
2013-11-11 00:15:00,33.1,17.4,30.15,NNW,331,8.7,12.3,52,0.00,,---,0.00,VWS V14.01,2013-11-11 06:15:00,
2013-11-11 00:20:00,32.5,16.4,30.15,NW,326,11.0,11.0,51,0.00,,---,0.00,VWS V14.01,2013-11-11 06:20:00,
2013-11-11 00:25:00,32.2,16.1,30.15,NNW,345,5.8,10.1,51,0.00,,---,0.00,VWS V14.01,2013-11-11 06:25:00,
2013-11-11 00:31:00,31.8,16.2,30.15,NW,313,11.0,11.0,52,0.00,,---,0.00,VWS V14.01,2013-11-11 06:31:00,
2013-11-11 00:36:00,31.5,15.9,30.15,NNW,335,13.2,13.2,52,0.00,,---,0.00,VWS V14.01,2013-11-11 06:36:00,
2013-11-11 00:41:00,31.1,15.5,30.15,NW,318,12.3,12.3,52,0.00,,---,0.00,VWS V14.01,2013-11-11 06:41:00,
2013-11-11 00:47:00,30.9,15.4,30.15,NNW,344,8.1,13.6,52,0.00,,---,0.00,VWS V14.01,2013-11-11 06:47:00,
2013-11-11 00:53:00,30.9,15.8,30.18,North,350,11.0,11.0,53,0.00,,---,0.00,VWS V14.01,2013-11-11 06:53:00,
2013-11-11 00:59:00,30.7,16.1,30.18,North,349,8.7,8.7,54,0.00,,---,0.00,VWS V14.01,2013-11-11 06:59:00,
2013-11-11 01:04:00,30.6,16.3,30.18,NW,315,15.4,15.4,55,0.00,,---,0.00,VWS V14.01,2013-11-11 07:04:00,
2013-11-11 01:09:00,30.0,14.5,30.18,North,0,8.3,8.3,52,0.00,,---,0.00,VWS V14.01,2013-11-11 07:09:00,
2013-11-11 01:15:00,29.5,11.8,30.18,NNE,15,13.2,16.8,47,0.00,,---,0.00,VWS V14.01,2013-11-11 07:15:00,
2013-11-11 01:21:00,28.8,9.1,30.18,North,5,14.1,14.1,43,0.00,,---,0.00,VWS V14.01,2013-11-11 07:21:00,
2013-11-11 01:26:00,28.6,8.4,30.18,North,353,8.3,8.3,42,0.00,,---,0.00,VWS V14.01,2013-11-11 07:26:00,
2013-11-11 01:32:00,28.4,8.2,30.18,North,8,6.3,10.5,42,0.00,,---,0.00,VWS V14.01,2013-11-11 07:32:00,
2013-11-11 01:37:00,28.0,7.9,30.18,North,357,11.0,11.0,42,0.00,,---,0.00,VWS V14.01,2013-11-11 07:37:00,
2013-11-11 01:42:00,27.7,7.6,30.18,North,9,6.3,6.3,42,0.00,,---,0.00,VWS V14.01,2013-11-11 07:42:00,
2013-11-11 01:47:00,27.3,7.3,30.21,NNE,12,5.8,14.5,42,0.00,,---,0.00,VWS V14.01,2013-11-11 07:47:00,
2013-11-11 01:53:00,27.0,6.9,30.21,NNW,336,7.6,8.7,42,0.00,,---,0.00,VWS V14.01,2013-11-11 07:53:00,
2013-11-11 01:58:00,26.8,6.2,30.21,North,6,4.0,7.6,41,0.00,,---,0.00,VWS V14.01,2013-11-11 07:58:00,
2013-11-11 02:03:00,26.6,6.6,30.21,NNW,335,12.8,12.8,42,0.00,,---,0.00,VWS V14.01,2013-11-11 08:03:00,
2013-11-11 02:08:00,26.6,6.6,30.21,North,353,8.1,17.4,42,0.00,,---,0.00,VWS V14.01,2013-11-11 08:08:00,
2013-11-11 02:14:00,26.4,6.4,30.21,NW,325,9.6,9.6,42,0.00,,---,0.00,VWS V14.01,2013-11-11 08:14:00,
2013-11-11 02:19:00,26.1,6.1,30.21,NNW,331,8.1,12.3,42,0.00,,---,0.00,VWS V14.01,2013-11-11 08:19:00,
2013-11-11 02:24:00,26.1,6.1,30.21,NNW,329,12.8,12.8,42,0.00,,---,0.00,VWS V14.01,2013-11-11 08:24:00,
2013-11-11 02:29:00,25.9,6.0,30.21,NNW,329,12.3,12.3,42,0.00,,---,0.00,VWS V14.01,2013-11-11 08:29:00,
2013-11-11 02:35:00,25.7,5.8,30.24,North,357,9.6,12.3,42,0.00,,---,0.00,VWS V14.01,2013-11-11 08:35:00,
2013-11-11 02:40:00,25.5,5.6,30.24,North,353,8.1,13.2,42,0.00,,---,0.00,VWS V14.01,2013-11-11 08:40:00,
2013-11-11 02:46:00,25.5,5.6,30.24,North,357,5.4,19.7,42,0.00,,---,0.00,VWS V14.01,2013-11-11 08:46:00,
2013-11-11 02:51:00,25.3,5.5,30.24,North,357,5.4,5.4,42,0.00,,---,0.00,VWS V14.01,2013-11-11 08:51:00,
2013-11-11 02:56:00,25.3,6.0,30.24,North,357,5.4,5.4,43,0.00,,---,0.00,VWS V14.01,2013-11-11 08:56:00,
2013-11-11 03:03:00,25.3,6.0,30.24,North,357,5.4,5.4,43,0.00,,---,0.00,VWS V14.01,2013-11-11 09:03:00,
2013-11-11 03:09:00,25.2,5.8,30.24,North,357,5.4,5.4,43,0.00,,---,0.00,VWS V14.01,2013-11-11 09:09:00,
2013-11-11 03:14:00,25.2,5.8,30.24,North,357,5.4,5.4,43,0.00,,---,0.00,VWS V14.01,2013-11-11 09:14:00,
2013-11-11 03:20:00,25.0,5.7,30.24,North,357,5.4,5.4,43,0.00,,---,0.00,VWS V14.01,2013-11-11 09:20:00,
2013-11-11 03:25:00,24.4,5.2,30.24,North,10,15.4,15.4,43,0.00,,---,0.00,VWS V14.01,2013-11-11 09:25:00,
2013-11-11 03:31:00,24.3,5.0,30.24,North,10,15.4,15.4,43,0.00,,---,0.00,VWS V14.01,2013-11-11 09:31:00,
2013-11-11 03:36:00,24.1,4.8,30.27,North,1,8.1,8.1,43,0.00,,---,0.00,VWS V14.01,2013-11-11 09:36:00,
2013-11-11 03:41:00,23.9,4.7,30.27,North,1,8.1,8.1,43,0.00,,---,0.00,VWS V14.01,2013-11-11 09:41:00,
2013-11-11 03:47:00,23.7,4.5,30.27,North,1,8.1,8.1,43,0.00,,---,0.00,VWS V14.01,2013-11-11 09:47:00,
2013-11-11 03:53:00,23.4,4.2,30.27,North,1,8.1,8.1,43,0.00,,---,0.00,VWS V14.01,2013-11-11 09:53:00,
2013-11-11 03:58:00,23.0,4.3,30.27,North,357,11.0,11.0,44,0.00,,---,0.00,VWS V14.01,2013-11-11 09:58:00,
2013-11-11 04:04:00,22.8,4.2,30.27,North,353,10.5,13.2,44,0.00,,---,0.00,VWS V14.01,2013-11-11 10:04:00,
2013-11-11 04:09:00,22.5,3.9,30.27,NNW,348,13.2,13.2,44,0.00,,---,0.00,VWS V14.01,2013-11-11 10:09:00,
2013-11-11 04:15:00,22.3,4.2,30.27,North,353,11.9,12.3,45,0.00,,---,0.00,VWS V14.01,2013-11-11 10:15:00,
2013-11-11 04:21:00,21.9,3.8,30.27,NNW,335,11.0,11.0,45,0.00,,---,0.00,VWS V14.01,2013-11-11 10:21:00,
2013-11-11 04:26:00,21.7,3.7,30.27,West,277,10.1,12.8,45,0.00,,---,0.00,VWS V14.01,2013-11-11 10:26:00,
2013-11-11 04:31:00,21.7,3.7,30.27,NW,317,11.0,11.0,45,0.00,,---,0.00,VWS V14.01,2013-11-11 10:31:00,
2013-11-11 04:37:00,21.6,3.5,30.27,NNW,341,13.2,13.2,45,0.00,,---,0.00,VWS V14.01,2013-11-11 10:37:00,
2013-11-11 04:42:00,21.4,3.8,30.27,NNW,337,13.6,13.6,46,0.00,,---,0.00,VWS V14.01,2013-11-11 10:42:00,
2013-11-11 04:47:00,21.4,3.8,30.27,NNW,332,8.1,8.1,46,0.00,,---,0.00,VWS V14.01,2013-11-11 10:47:00,
2013-11-11 04:53:00,21.2,4.1,30.27,North,353,10.1,10.1,47,0.00,,---,0.00,VWS V14.01,2013-11-11 10:53:00,
2013-11-11 04:58:00,21.2,4.1,30.27,NW,313,6.7,10.5,47,0.00,,---,0.00,VWS V14.01,2013-11-11 10:58:00,
2013-11-11 05:03:00,21.0,3.5,30.29,NNW,336,12.3,12.8,46,0.00,,---,0.00,VWS V14.01,2013-11-11 11:03:00,
2013-11-11 05:08:00,20.8,3.3,30.29,NW,320,13.2,13.2,46,0.00,,---,0.00,VWS V14.01,2013-11-11 11:08:00,
2013-11-11 05:13:00,20.7,3.2,30.29,NW,319,9.6,9.6,46,0.00,,---,0.00,VWS V14.01,2013-11-11 11:13:00,
2013-11-11 05:18:00,20.7,3.2,30.29,North,357,8.7,8.7,46,0.00,,---,0.00,VWS V14.01,2013-11-11 11:18:00,
2013-11-11 05:24:00,20.5,3.0,30.29,NNW,328,8.1,8.1,46,0.00,,---,0.00,VWS V14.01,2013-11-11 11:24:00,
2013-11-11 05:30:00,20.3,2.8,30.29,NW,307,10.1,15.0,46,0.00,,---,0.00,VWS V14.01,2013-11-11 11:30:00,
2013-11-11 05:35:00,19.9,2.5,30.32,NW,325,8.7,13.6,46,0.00,,---,0.00,VWS V14.01,2013-11-11 11:35:00,
2013-11-11 05:40:00,19.8,2.3,30.32,NNW,337,8.1,8.1,46,0.00,,---,0.00,VWS V14.01,2013-11-11 11:40:00,
2013-11-11 05:45:00,19.6,2.2,30.32,NW,325,11.0,16.8,46,0.00,,---,0.00,VWS V14.01,2013-11-11 11:45:00,
2013-11-11 05:50:00,19.4,2.0,30.32,NNW,337,8.1,8.7,46,0.00,,---,0.00,VWS V14.01,2013-11-11 11:50:00,
2013-11-11 05:56:00,19.2,1.8,30.32,North,353,11.0,15.0,46,0.00,,---,0.00,VWS V14.01,2013-11-11 11:56:00,
2013-11-11 06:01:00,19.2,2.3,30.32,NNW,341,12.3,12.3,47,0.00,,---,0.00,VWS V14.01,2013-11-11 12:01:00,
2013-11-11 06:07:00,19.0,2.1,30.32,NNW,333,10.5,10.5,47,0.00,,---,0.00,VWS V14.01,2013-11-11 12:07:00,
2013-11-11 06:12:00,19.0,2.1,30.32,NNW,344,10.5,14.1,47,0.00,,---,0.00,VWS V14.01,2013-11-11 12:12:00,
2013-11-11 06:17:00,18.9,2.0,30.32,WNW,288,10.5,11.0,47,0.00,,---,0.00,VWS V14.01,2013-11-11 12:17:00,
2013-11-11 06:22:00,18.7,1.8,30.32,NNW,345,12.3,13.2,47,0.00,,---,0.00,VWS V14.01,2013-11-11 12:22:00,
2013-11-11 06:27:00,18.5,1.6,30.32,NW,326,8.3,11.0,47,0.00,,---,0.00,VWS V14.01,2013-11-11 12:27:00,
2013-11-11 06:33:00,18.3,1.5,30.35,NW,315,5.4,5.4,47,0.00,,---,0.00,VWS V14.01,2013-11-11 12:33:00,
2013-11-11 06:38:00,18.3,1.5,30.35,NNW,341,7.6,12.3,47,0.00,,---,0.00,VWS V14.01,2013-11-11 12:38:00,
2013-11-11 06:44:00,18.1,1.3,30.35,NNW,336,11.0,14.5,47,0.00,,---,0.00,VWS V14.01,2013-11-11 12:44:00,
2013-11-11 06:50:00,18.0,1.1,30.35,WNW,300,8.7,13.2,47,0.00,,---,0.00,VWS V14.01,2013-11-11 12:50:00,
2013-11-11 06:55:00,17.8,1.0,30.35,NW,316,6.3,9.6,47,0.00,,---,0.00,VWS V14.01,2013-11-11 12:55:00,
2013-11-11 07:01:00,17.8,1.0,30.35,NNW,332,11.0,11.0,47,0.00,,---,0.00,VWS V14.01,2013-11-11 13:01:00,
2013-11-11 07:06:00,17.8,1.0,30.35,NNW,341,10.1,10.1,47,0.00,,---,0.00,VWS V14.01,2013-11-11 13:06:00,
2013-11-11 07:12:00,17.8,1.0,30.35,NW,305,8.1,8.7,47,0.00,,---,0.00,VWS V14.01,2013-11-11 13:12:00,
2013-11-11 07:18:00,17.6,1.3,30.38,NW,312,10.5,13.2,48,0.00,,---,0.00,VWS V14.01,2013-11-11 13:18:00,
2013-11-11 07:23:00,17.6,1.3,30.38,NNW,334,8.1,10.1,48,0.00,,---,0.00,VWS V14.01,2013-11-11 13:23:00,
2013-11-11 07:29:00,17.6,1.3,30.38,NW,319,8.3,8.3,48,0.00,,---,0.00,VWS V14.01,2013-11-11 13:29:00,
2013-11-11 07:34:00,17.6,1.3,30.38,NNW,345,7.6,7.6,48,0.00,,---,0.00,VWS V14.01,2013-11-11 13:34:00,
2013-11-11 07:40:00,17.6,1.3,30.38,NW,311,5.4,8.7,48,0.00,,---,0.00,VWS V14.01,2013-11-11 13:40:00,
2013-11-11 07:45:00,17.8,1.4,30.38,NNW,329,4.9,8.3,48,0.00,,---,0.00,VWS V14.01,2013-11-11 13:45:00,
2013-11-11 07:51:00,17.8,1.4,30.41,North,357,3.6,8.1,48,0.00,,---,0.00,VWS V14.01,2013-11-11 13:51:00,
2013-11-11 07:57:00,18.0,1.6,30.41,NW,317,7.6,7.6,48,0.00,,---,0.00,VWS V14.01,2013-11-11 13:57:00,
2013-11-11 08:02:00,18.1,1.8,30.41,NW,320,8.7,10.5,48,0.00,,---,0.00,VWS V14.01,2013-11-11 14:02:00,
2013-11-11 08:08:00,18.0,1.1,30.41,NW,312,4.9,11.0,47,0.00,,---,0.00,VWS V14.01,2013-11-11 14:08:00,
2013-11-11 08:13:00,18.0,1.1,30.41,WNW,298,10.1,10.5,47,0.00,,---,0.00,VWS V14.01,2013-11-11 14:13:00,
2013-11-11 08:18:00,18.1,1.8,30.41,NNW,331,4.0,4.0,48,0.00,,---,0.00,VWS V14.01,2013-11-11 14:18:00,
2013-11-11 08:24:00,18.1,1.8,30.41,NNW,338,8.7,8.7,48,0.00,,---,0.00,VWS V14.01,2013-11-11 14:24:00,
2013-11-11 08:29:00,18.3,1.5,30.41,NNW,340,8.7,12.8,47,0.00,,---,0.00,VWS V14.01,2013-11-11 14:29:00,
2013-11-11 08:35:00,18.3,1.5,30.41,NNW,338,11.0,15.0,47,0.00,,---,0.00,VWS V14.01,2013-11-11 14:35:00,
2013-11-11 08:41:00,18.5,1.6,30.41,NNW,336,7.6,10.5,47,0.00,,---,0.00,VWS V14.01,2013-11-11 14:41:00,
2013-11-11 08:47:00,18.5,1.6,30.41,NNW,344,8.3,11.9,47,0.00,,---,0.00,VWS V14.01,2013-11-11 14:47:00,
2013-11-11 08:52:00,18.7,1.8,30.44,NW,314,6.3,6.3,47,0.00,,---,0.00,VWS V14.01,2013-11-11 14:52:00,
2013-11-11 08:58:00,18.9,2.0,30.44,NW,322,6.7,7.6,47,0.00,,---,0.00,VWS V14.01,2013-11-11 14:58:00,
2013-11-11 09:03:00,19.0,1.7,30.44,NNW,340,8.3,11.0,46,0.00,,---,0.00,VWS V14.01,2013-11-11 15:03:00,
2013-11-11 09:08:00,19.0,1.7,30.44,North,0,4.0,4.0,46,0.00,,---,0.00,VWS V14.01,2013-11-11 15:08:00,
2013-11-11 09:14:00,19.6,2.2,30.44,NNW,341,10.1,13.2,46,0.00,,---,0.00,VWS V14.01,2013-11-11 15:14:00,
2013-11-11 09:19:00,19.8,2.3,30.44,NE,48,5.8,8.7,46,0.00,,---,0.00,VWS V14.01,2013-11-11 15:19:00,
2013-11-11 09:25:00,20.1,2.7,30.44,NE,48,5.8,5.8,46,0.00,,---,0.00,VWS V14.01,2013-11-11 15:25:00,
2013-11-11 09:31:00,20.3,2.8,30.44,NNW,335,10.1,12.3,46,0.00,,---,0.00,VWS V14.01,2013-11-11 15:31:00,
2013-11-11 09:36:00,19.9,2.0,30.44,NNW,334,10.5,12.3,45,0.00,,---,0.00,VWS V14.01,2013-11-11 15:36:00,
2013-11-11 09:41:00,19.8,1.9,30.44,North,3,7.2,8.7,45,0.00,,---,0.00,VWS V14.01,2013-11-11 15:41:00,
2013-11-11 09:47:00,19.8,1.9,30.44,NNW,342,8.7,8.7,45,0.00,,---,0.00,VWS V14.01,2013-11-11 15:47:00,
2013-11-11 09:53:00,20.1,2.7,30.44,North,0,12.8,12.8,46,0.00,,---,0.00,VWS V14.01,2013-11-11 15:53:00,
2013-11-11 09:59:00,20.5,3.0,30.44,NNE,19,7.6,7.6,46,0.00,,---,0.00,VWS V14.01,2013-11-11 15:59:00,
2013-11-11 10:04:00,21.0,3.5,30.44,NNW,334,12.8,12.8,46,0.00,,---,0.00,VWS V14.01,2013-11-11 16:04:00,
2013-11-11 10:10:00,21.2,3.2,30.44,NW,313,5.4,6.3,45,0.00,,---,0.00,VWS V14.01,2013-11-11 16:10:00,
2013-11-11 10:15:00,21.2,2.7,30.44,North,357,10.5,10.5,44,0.00,,---,0.00,VWS V14.01,2013-11-11 16:15:00,
2013-11-11 10:20:00,21.4,2.9,30.47,NNW,339,8.7,8.7,44,0.00,,---,0.00,VWS V14.01,2013-11-11 16:20:00,
2013-11-11 10:25:00,21.6,3.0,30.47,NNW,343,4.0,11.0,44,0.00,,---,0.00,VWS V14.01,2013-11-11 16:25:00,
2013-11-11 10:31:00,21.9,3.4,30.47,NNW,338,8.1,11.0,44,0.00,,---,0.00,VWS V14.01,2013-11-11 16:31:00,
2013-11-11 10:36:00,22.3,3.7,30.47,NNW,328,4.0,5.4,44,0.00,,---,0.00,VWS V14.01,2013-11-11 16:36:00,
2013-11-11 10:41:00,22.3,3.2,30.47,WNW,293,5.4,8.1,43,0.00,,---,0.00,VWS V14.01,2013-11-11 16:41:00,
2013-11-11 10:46:00,22.3,3.2,30.47,NNW,341,6.7,8.1,43,0.00,,---,0.00,VWS V14.01,2013-11-11 16:46:00,
2013-11-11 10:52:00,22.8,3.7,30.47,North,2,8.1,8.1,43,0.00,,---,0.00,VWS V14.01,2013-11-11 16:52:00,
2013-11-11 10:57:00,22.6,3.5,30.47,NE,37,10.1,11.9,43,0.00,,---,0.00,VWS V14.01,2013-11-11 16:57:00,
2013-11-11 11:02:00,22.6,3.5,30.47,NW,324,7.6,11.0,43,0.00,,---,0.00,VWS V14.01,2013-11-11 17:02:00,
2013-11-11 11:08:00,22.3,3.2,30.47,NW,320,13.2,13.2,43,0.00,,---,0.00,VWS V14.01,2013-11-11 17:08:00,
2013-11-11 11:13:00,22.3,3.2,30.47,North,350,11.0,11.9,43,0.00,,---,0.00,VWS V14.01,2013-11-11 17:13:00,
2013-11-11 11:18:00,22.1,3.0,30.47,NNW,331,5.8,8.1,43,0.00,,---,0.00,VWS V14.01,2013-11-11 17:18:00,
2013-11-11 11:23:00,21.6,2.5,30.47,North,357,7.6,11.0,43,0.00,,---,0.00,VWS V14.01,2013-11-11 17:23:00,
2013-11-11 11:28:00,22.1,3.0,30.47,NNW,348,8.1,8.1,43,0.00,,---,0.00,VWS V14.01,2013-11-11 17:28:00,
2013-11-11 11:34:00,21.6,2.0,30.47,NE,37,7.6,13.2,42,0.00,,---,0.00,VWS V14.01,2013-11-11 17:34:00,
2013-11-11 11:39:00,21.4,1.9,30.47,North,353,8.1,8.3,42,0.00,,---,0.00,VWS V14.01,2013-11-11 17:39:00,
2013-11-11 11:45:00,21.9,2.9,30.47,NE,35,8.1,10.5,43,0.00,,---,0.00,VWS V14.01,2013-11-11 17:45:00,
2013-11-11 11:50:00,23.0,3.8,30.47,NNE,19,10.5,12.3,43,0.00,,---,0.00,VWS V14.01,2013-11-11 17:50:00,
2013-11-11 11:55:00,23.2,3.5,30.47,NNW,339,7.6,11.0,42,0.00,,---,0.00,VWS V14.01,2013-11-11 17:55:00,
2013-11-11 12:00:00,23.7,4.0,30.47,North,2,3.1,10.1,42,0.00,,---,0.00,VWS V14.01,2013-11-11 18:00:00,
2013-11-11 12:06:00,22.6,3.0,30.47,NW,320,11.0,11.0,42,0.00,,---,0.00,VWS V14.01,2013-11-11 18:06:00,
2013-11-11 12:11:00,23.7,4.0,30.47,NW,323,2.7,11.0,42,0.00,,---,0.00,VWS V14.01,2013-11-11 18:11:00,
2013-11-11 12:17:00,23.5,3.8,30.47,NW,319,11.0,16.8,42,0.00,,---,0.00,VWS V14.01,2013-11-11 18:17:00,
2013-11-11 12:23:00,23.4,3.7,30.50,West,281,5.8,8.3,42,0.00,,---,0.00,VWS V14.01,2013-11-11 18:23:00,
2013-11-11 12:28:00,23.9,4.2,30.50,NNW,341,7.6,16.8,42,0.00,,---,0.00,VWS V14.01,2013-11-11 18:28:00,
2013-11-11 12:33:00,23.4,3.7,30.47,NNE,28,11.0,13.2,42,0.00,,---,0.00,VWS V14.01,2013-11-11 18:33:00,
2013-11-11 12:38:00,22.5,2.8,30.47,NNW,340,12.8,12.8,42,0.00,,---,0.00,VWS V14.01,2013-11-11 18:38:00,
2013-11-11 12:44:00,22.8,3.2,30.47,NNW,327,12.8,14.5,42,0.00,,---,0.00,VWS V14.01,2013-11-11 18:44:00,
2013-11-11 12:49:00,22.6,3.0,30.50,NW,310,15.0,15.0,42,0.00,,---,0.00,VWS V14.01,2013-11-11 18:49:00,
2013-11-11 12:55:00,22.3,2.7,30.50,NNW,345,5.8,11.0,42,0.00,,---,0.00,VWS V14.01,2013-11-11 18:55:00,
2013-11-11 13:00:00,22.8,3.2,30.50,NNW,340,14.1,14.5,42,0.00,,---,0.00,VWS V14.01,2013-11-11 19:00:00,
2013-11-11 13:05:00,22.8,2.7,30.50,NE,39,7.6,15.0,41,0.00,,---,0.00,VWS V14.01,2013-11-11 19:05:00,
2013-11-11 13:10:00,22.6,2.5,30.50,NE,36,10.5,12.8,41,0.00,,---,0.00,VWS V14.01,2013-11-11 19:10:00,
2013-11-11 13:16:00,22.6,3.0,30.50,NNW,335,10.1,12.3,42,0.00,,---,0.00,VWS V14.01,2013-11-11 19:16:00,
2013-11-11 13:21:00,22.3,1.6,30.50,NNW,343,10.5,14.5,40,0.00,,---,0.00,VWS V14.01,2013-11-11 19:21:00,
2013-11-11 13:27:00,22.5,2.3,30.50,NNW,342,8.1,8.7,41,0.00,,---,0.00,VWS V14.01,2013-11-11 19:27:00,
2013-11-11 13:33:00,22.8,3.2,30.50,NNW,344,10.1,10.1,42,0.00,,---,0.00,VWS V14.01,2013-11-11 19:33:00,
2013-11-11 13:38:00,22.8,2.7,30.50,North,353,7.6,13.2,41,0.00,,---,0.00,VWS V14.01,2013-11-11 19:38:00,
2013-11-11 13:43:00,22.5,2.3,30.50,NNW,327,15.4,15.4,41,0.00,,---,0.00,VWS V14.01,2013-11-11 19:43:00,
2013-11-11 13:48:00,22.3,1.6,30.50,NNW,329,6.3,8.1,40,0.00,,---,0.00,VWS V14.01,2013-11-11 19:48:00,
2013-11-11 13:54:00,22.6,2.0,30.50,WNW,299,12.8,15.4,40,0.00,,---,0.00,VWS V14.01,2013-11-11 19:54:00,
2013-11-11 14:00:00,22.8,2.1,30.50,NNE,15,8.1,8.7,40,0.00,,---,0.00,VWS V14.01,2013-11-11 20:00:00,
2013-11-11 14:06:00,22.8,2.1,30.50,North,8,8.1,11.0,40,0.00,,---,0.00,VWS V14.01,2013-11-11 20:06:00,
2013-11-11 14:12:00,22.3,1.6,30.50,NNW,329,12.8,12.8,40,0.00,,---,0.00,VWS V14.01,2013-11-11 20:12:00,
2013-11-11 14:17:00,22.3,1.6,30.50,NNW,327,12.3,12.3,40,0.00,,---,0.00,VWS V14.01,2013-11-11 20:17:00,
2013-11-11 14:23:00,22.5,2.3,30.50,NNE,24,11.4,11.4,41,0.00,,---,0.00,VWS V14.01,2013-11-11 20:23:00,
2013-11-11 14:28:00,22.5,1.8,30.50,North,3,8.1,9.6,40,0.00,,---,0.00,VWS V14.01,2013-11-11 20:28:00,
2013-11-11 14:33:00,22.3,1.6,30.50,West,280,4.0,11.0,40,0.00,,---,0.00,VWS V14.01,2013-11-11 20:33:00,
2013-11-11 14:39:00,22.1,1.5,30.50,NNW,329,13.2,13.2,40,0.00,,---,0.00,VWS V14.01,2013-11-11 20:39:00,
2013-11-11 14:45:00,22.1,1.5,30.50,NNW,332,8.7,8.7,40,0.00,,---,0.00,VWS V14.01,2013-11-11 20:45:00,
2013-11-11 14:50:00,22.1,1.5,30.50,NNW,342,7.6,8.7,40,0.00,,---,0.00,VWS V14.01,2013-11-11 20:50:00,
2013-11-11 14:55:00,21.9,1.3,30.50,NNW,332,13.6,13.6,40,0.00,,---,0.00,VWS V14.01,2013-11-11 20:55:00,
2013-11-11 15:00:00,21.7,1.1,30.50,NW,325,8.3,10.1,40,0.00,,---,0.00,VWS V14.01,2013-11-11 21:00:00,
2013-11-11 15:05:00,21.6,1.0,30.50,West,276,7.6,11.4,40,0.00,,---,0.00,VWS V14.01,2013-11-11 21:05:00,
2013-11-11 15:11:00,21.6,1.0,30.50,NNW,338,7.6,11.0,40,0.00,,---,0.00,VWS V14.01,2013-11-11 21:11:00,
2013-11-11 15:16:00,21.4,0.8,30.50,NNW,345,6.3,6.3,40,0.00,,---,0.00,VWS V14.01,2013-11-11 21:16:00,
2013-11-11 15:22:00,21.4,0.8,30.53,NNW,340,6.3,6.3,40,0.00,,---,0.00,VWS V14.01,2013-11-11 21:22:00,
2013-11-11 15:27:00,21.2,0.7,30.53,NNW,335,8.1,8.7,40,0.00,,---,0.00,VWS V14.01,2013-11-11 21:27:00,
2013-11-11 15:32:00,21.0,0.5,30.53,North,357,10.1,10.1,40,0.00,,---,0.00,VWS V14.01,2013-11-11 21:32:00,
2013-11-11 15:37:00,20.8,0.3,30.53,North,0,13.2,13.2,40,0.00,,---,0.00,VWS V14.01,2013-11-11 21:37:00,
2013-11-11 15:43:00,20.8,0.9,30.53,NNW,332,12.3,12.3,41,0.00,,---,0.00,VWS V14.01,2013-11-11 21:43:00,
2013-11-11 15:48:00,20.8,0.3,30.53,NW,317,8.3,15.4,40,0.00,,---,0.00,VWS V14.01,2013-11-11 21:48:00,
2013-11-11 15:54:00,20.5,0.0,30.53,NNW,332,12.3,12.3,40,0.00,,---,0.00,VWS V14.01,2013-11-11 21:54:00,
2013-11-11 16:00:00,20.5,0.0,30.53,NNW,332,8.1,8.3,40,0.00,,---,0.00,VWS V14.01,2013-11-11 22:00:00,
2013-11-11 16:05:00,19.9,0.0,30.53,NNW,333,12.3,12.3,41,0.00,,---,0.00,VWS V14.01,2013-11-11 22:05:00,
2013-11-11 16:10:00,19.8,-0.1,30.53,NW,315,6.3,8.1,41,0.00,,---,0.00,VWS V14.01,2013-11-11 22:10:00,
2013-11-11 16:16:00,19.4,-0.4,30.53,NW,311,8.3,10.1,41,0.00,,---,0.00,VWS V14.01,2013-11-11 22:16:00,
2013-11-11 16:21:00,19.2,-0.6,30.56,NW,321,13.2,13.2,41,0.00,,---,0.00,VWS V14.01,2013-11-11 22:21:00,
2013-11-11 16:26:00,18.9,-0.4,30.56,North,353,5.4,10.5,42,0.00,,---,0.00,VWS V14.01,2013-11-11 22:26:00,
2013-11-11 16:32:00,18.7,-0.6,30.56,NNW,330,8.3,8.3,42,0.00,,---,0.00,VWS V14.01,2013-11-11 22:32:00,
2013-11-11 16:37:00,18.1,-1.1,30.56,NNW,339,8.7,8.7,42,0.00,,---,0.00,VWS V14.01,2013-11-11 22:37:00,
2013-11-11 16:43:00,18.0,-1.2,30.56,NNW,344,5.8,10.1,42,0.00,,---,0.00,VWS V14.01,2013-11-11 22:43:00,
2013-11-11 16:48:00,17.8,-0.9,30.56,NNW,329,9.6,14.1,43,0.00,,---,0.00,VWS V14.01,2013-11-11 22:48:00,
2013-11-11 16:53:00,17.6,-1.1,30.56,NNW,329,6.3,10.1,43,0.00,,---,0.00,VWS V14.01,2013-11-11 22:53:00,
2013-11-11 16:58:00,17.4,-1.2,30.56,NNW,336,7.6,8.3,43,0.00,,---,0.00,VWS V14.01,2013-11-11 22:58:00,
2013-11-11 17:04:00,16.9,-1.7,30.56,NW,314,4.9,8.3,43,0.00,,---,0.00,VWS V14.01,2013-11-11 23:04:00,
2013-11-11 17:10:00,16.7,-1.9,30.56,NNW,330,5.8,8.3,43,0.00,,---,0.00,VWS V14.01,2013-11-11 23:10:00,
2013-11-11 17:15:00,16.5,-1.6,30.56,NNW,340,6.3,8.1,44,0.00,,---,0.00,VWS V14.01,2013-11-11 23:15:00,
2013-11-11 17:21:00,16.2,-1.9,30.59,NNW,331,3.6,6.7,44,0.00,,---,0.00,VWS V14.01,2013-11-11 23:21:00,
2013-11-11 17:27:00,16.2,-1.9,30.59,NNW,332,6.3,6.3,44,0.00,,---,0.00,VWS V14.01,2013-11-11 23:27:00,
2013-11-11 17:32:00,16.0,-2.1,30.59,North,350,8.3,8.7,44,0.00,,---,0.00,VWS V14.01,2013-11-11 23:32:00,
2013-11-11 17:38:00,16.0,-2.1,30.59,NW,322,8.3,10.5,44,0.00,,---,0.00,VWS V14.01,2013-11-11 23:38:00,
2013-11-11 17:43:00,15.8,-2.2,30.59,NW,321,4.9,7.6,44,0.00,,---,0.00,VWS V14.01,2013-11-11 23:43:00,
2013-11-11 17:49:00,15.6,-1.9,30.59,NNW,330,10.5,10.5,45,0.00,,---,0.00,VWS V14.01,2013-11-11 23:49:00,
2013-11-11 17:54:00,15.6,-1.9,30.59,NW,307,5.8,7.6,45,0.00,,---,0.00,VWS V14.01,2013-11-11 23:54:00,
2013-11-11 18:00:00,15.4,-2.1,30.59,NNW,339,8.3,9.6,45,0.00,,---,0.00,VWS V14.01,2013-11-12 00:00:00,
2013-11-11 18:06:00,15.3,-2.3,30.59,NW,325,5.4,7.2,45,0.00,,---,0.00,VWS V14.01,2013-11-12 00:06:00,
2013-11-11 18:11:00,15.1,-2.4,30.59,WNW,298,5.8,8.7,45,0.00,,---,0.00,VWS V14.01,2013-11-12 00:11:00,
2013-11-11 18:17:00,15.1,-2.4,30.59,NNW,345,7.6,8.7,45,0.00,,---,0.00,VWS V14.01,2013-11-12 00:17:00,
2013-11-11 18:23:00,14.5,-2.9,30.59,NNW,337,5.4,5.8,45,0.00,,---,0.00,VWS V14.01,2013-11-12 00:23:00,
2013-11-11 18:28:00,14.5,-2.9,30.59,NNW,332,7.6,10.1,45,0.00,,---,0.00,VWS V14.01,2013-11-12 00:28:00,
2013-11-11 18:34:00,14.5,-2.5,30.59,NNW,339,5.8,5.8,46,0.00,,---,0.00,VWS V14.01,2013-11-12 00:34:00,
2013-11-11 18:39:00,14.5,-2.5,30.59,North,357,8.7,11.4,46,0.00,,---,0.00,VWS V14.01,2013-11-12 00:39:00,
2013-11-11 18:45:00,14.7,-2.3,30.59,NNW,328,4.9,6.3,46,0.00,,---,0.00,VWS V14.01,2013-11-12 00:45:00,
2013-11-11 18:50:00,14.5,-2.5,30.62,NNW,329,8.7,9.2,46,0.00,,---,0.00,VWS V14.01,2013-11-12 00:50:00,
2013-11-11 18:56:00,14.5,-2.5,30.62,North,357,6.3,8.1,46,0.00,,---,0.00,VWS V14.01,2013-11-12 00:56:00,
2013-11-11 19:02:00,14.5,-2.5,30.62,NNW,342,7.6,8.7,46,0.00,,---,0.00,VWS V14.01,2013-11-12 01:02:00,
2013-11-11 19:07:00,14.5,-2.9,30.62,NNW,345,6.3,8.1,45,0.00,,---,0.00,VWS V14.01,2013-11-12 01:07:00,
2013-11-11 19:13:00,14.4,-2.6,30.62,NNW,332,8.1,8.1,46,0.00,,---,0.00,VWS V14.01,2013-11-12 01:13:00,
2013-11-11 19:19:00,14.4,-2.6,30.62,North,353,8.7,8.7,46,0.00,,---,0.00,VWS V14.01,2013-11-12 01:19:00,
2013-11-11 19:24:00,14.2,-2.8,30.62,NW,316,8.3,8.7,46,0.00,,---,0.00,VWS V14.01,2013-11-12 01:24:00,
2013-11-11 19:29:00,14.2,-2.8,30.62,NW,304,3.1,7.6,46,0.00,,---,0.00,VWS V14.01,2013-11-12 01:29:00,
2013-11-11 19:34:00,14.0,-3.0,30.62,NW,324,5.8,5.8,46,0.00,,---,0.00,VWS V14.01,2013-11-12 01:34:00,
2013-11-11 19:40:00,13.8,-3.1,30.62,NW,310,7.6,7.6,46,0.00,,---,0.00,VWS V14.01,2013-11-12 01:40:00,
2013-11-11 19:45:00,13.8,-3.1,30.62,NNW,335,3.6,5.8,46,0.00,,---,0.00,VWS V14.01,2013-11-12 01:45:00,
2013-11-11 19:51:00,13.8,-3.1,30.65,NW,325,8.1,11.0,46,0.00,,---,0.00,VWS V14.01,2013-11-12 01:51:00,
2013-11-11 19:56:00,13.8,-3.1,30.65,NNW,328,5.4,8.1,46,0.00,,---,0.00,VWS V14.01,2013-11-12 01:56:00,
2013-11-11 20:02:00,13.8,-3.1,30.65,NW,318,8.7,11.9,46,0.00,,---,0.00,VWS V14.01,2013-11-12 02:02:00,
2013-11-11 20:07:00,13.8,-3.1,30.65,NNW,334,4.0,6.3,46,0.00,,---,0.00,VWS V14.01,2013-11-12 02:07:00,
2013-11-11 20:12:00,13.5,-3.5,30.65,NW,319,7.6,8.7,46,0.00,,---,0.00,VWS V14.01,2013-11-12 02:12:00,
2013-11-11 20:17:00,13.3,-3.6,30.65,WNW,297,7.6,7.6,46,0.00,,---,0.00,VWS V14.01,2013-11-12 02:17:00,
2013-11-11 20:23:00,13.3,-3.6,30.65,NW,326,7.6,8.7,46,0.00,,---,0.00,VWS V14.01,2013-11-12 02:23:00,
2013-11-11 20:28:00,13.3,-3.6,30.65,NNW,337,8.3,8.3,46,0.00,,---,0.00,VWS V14.01,2013-11-12 02:28:00,
2013-11-11 20:34:00,13.3,-3.6,30.65,NW,317,7.6,11.0,46,0.00,,---,0.00,VWS V14.01,2013-11-12 02:34:00,
2013-11-11 20:40:00,13.3,-3.6,30.65,NW,325,10.5,10.5,46,0.00,,---,0.00,VWS V14.01,2013-11-12 02:40:00,
2013-11-11 20:45:00,13.1,-3.8,30.65,NNW,342,7.6,11.0,46,0.00,,---,0.00,VWS V14.01,2013-11-12 02:45:00,
2013-11-11 20:50:00,13.1,-3.8,30.65,North,0,6.7,10.5,46,0.00,,---,0.00,VWS V14.01,2013-11-12 02:50:00,
2013-11-11 20:56:00,12.9,-4.0,30.65,NNW,333,5.4,6.3,46,0.00,,---,0.00,VWS V14.01,2013-11-12 02:56:00,
2013-11-11 21:02:00,12.9,-4.0,30.65,North,357,6.3,7.2,46,0.00,,---,0.00,VWS V14.01,2013-11-12 03:02:00,
2013-11-11 21:08:00,12.9,-4.0,30.65,NW,308,5.8,5.8,46,0.00,,---,0.00,VWS V14.01,2013-11-12 03:08:00,
2013-11-11 21:13:00,12.7,-4.1,30.65,NNW,331,4.0,4.0,46,0.00,,---,0.00,VWS V14.01,2013-11-12 03:13:00,
2013-11-11 21:19:00,12.6,-4.3,30.65,NNW,339,5.4,6.3,46,0.00,,---,0.00,VWS V14.01,2013-11-12 03:19:00,
2013-11-11 21:24:00,12.2,-4.6,30.65,NNW,334,5.8,6.3,46,0.00,,---,0.00,VWS V14.01,2013-11-12 03:24:00,
2013-11-11 21:30:00,12.0,-4.8,30.65,NNW,332,6.3,8.3,46,0.00,,---,0.00,VWS V14.01,2013-11-12 03:30:00,
2013-11-11 21:35:00,12.0,-4.8,30.68,NNW,339,3.6,8.3,46,0.00,,---,0.00,VWS V14.01,2013-11-12 03:35:00,
2013-11-11 21:41:00,12.0,-4.8,30.68,NNW,334,8.1,8.3,46,0.00,,---,0.00,VWS V14.01,2013-11-12 03:41:00,
2013-11-11 21:47:00,11.8,-4.9,30.68,NNW,328,7.6,7.6,46,0.00,,---,0.00,VWS V14.01,2013-11-12 03:47:00,
2013-11-11 21:52:00,12.0,-4.8,30.68,NNW,334,4.0,4.9,46,0.00,,---,0.00,VWS V14.01,2013-11-12 03:52:00,
2013-11-11 21:58:00,11.8,-4.9,30.68,North,350,8.3,11.0,46,0.00,,---,0.00,VWS V14.01,2013-11-12 03:58:00,
2013-11-11 22:03:00,11.8,-4.9,30.68,NNW,334,6.3,12.8,46,0.00,,---,0.00,VWS V14.01,2013-11-12 04:03:00,
2013-11-11 22:08:00,11.8,-4.9,30.68,NW,305,6.3,7.6,46,0.00,,---,0.00,VWS V14.01,2013-11-12 04:08:00,
2013-11-11 22:13:00,11.7,-5.1,30.68,NW,326,7.6,8.3,46,0.00,,---,0.00,VWS V14.01,2013-11-12 04:13:00,
2013-11-11 22:18:00,11.7,-5.1,30.68,NW,318,5.8,8.1,46,0.00,,---,0.00,VWS V14.01,2013-11-12 04:18:00,
2013-11-11 22:23:00,11.5,-5.3,30.68,NNW,331,5.4,7.6,46,0.00,,---,0.00,VWS V14.01,2013-11-12 04:23:00,
2013-11-11 22:29:00,11.5,-5.3,30.68,NW,314,6.3,9.2,46,0.00,,---,0.00,VWS V14.01,2013-11-12 04:29:00,
2013-11-11 22:34:00,11.1,-5.6,30.68,NW,318,5.4,5.8,46,0.00,,---,0.00,VWS V14.01,2013-11-12 04:34:00,
2013-11-11 22:39:00,11.1,-5.6,30.68,NNW,338,6.3,7.6,46,0.00,,---,0.00,VWS V14.01,2013-11-12 04:39:00,
2013-11-11 22:44:00,11.1,-5.6,30.68,NW,323,5.4,6.3,46,0.00,,---,0.00,VWS V14.01,2013-11-12 04:44:00,
2013-11-11 22:50:00,10.9,-5.8,30.68,NNW,341,5.8,5.8,46,0.00,,---,0.00,VWS V14.01,2013-11-12 04:50:00,
2013-11-11 22:55:00,10.8,-5.9,30.68,WNW,302,4.9,4.9,46,0.00,,---,0.00,VWS V14.01,2013-11-12 04:55:00,
2013-11-11 23:01:00,10.6,-6.1,30.68,WNW,302,4.9,4.9,46,0.00,,---,0.00,VWS V14.01,2013-11-12 05:01:00,
2013-11-11 23:03:00,10.4,-6.3,30.68,WNW,302,4.9,4.9,46,0.00,,---,0.00,VWS V14.01,2013-11-12 05:03:00,
2013-11-11 23:07:00,10.2,-6.4,30.68,NW,309,5.4,5.4,46,0.00,,---,0.00,VWS V14.01,2013-11-12 05:07:00,
2013-11-11 23:08:00,10.2,-6.4,30.68,NW,319,3.6,5.4,46,0.00,,---,0.00,VWS V14.01,2013-11-12 05:08:00,
2013-11-11 23:14:00,10.0,-6.6,30.68,WNW,295,3.1,3.1,46,0.00,,---,0.00,VWS V14.01,2013-11-12 05:14:00,
2013-11-11 23:19:00,9.7,-6.9,30.68,WNW,283,3.6,3.6,46,0.00,,---,0.00,VWS V14.01,2013-11-12 05:19:00,
2013-11-11 23:24:00,9.3,-7.3,30.68,WNW,287,5.8,5.8,46,0.00,,---,0.00,VWS V14.01,2013-11-12 05:24:00,
2013-11-11 23:30:00,9.1,-7.4,30.68,WNW,295,4.0,4.0,46,0.00,,---,0.00,VWS V14.01,2013-11-12 05:30:00,
2013-11-11 23:35:00,9.1,-7.4,30.71,WNW,293,3.6,3.6,46,0.00,,---,0.00,VWS V14.01,2013-11-12 05:35:00,
2013-11-11 23:40:00,9.0,-7.6,30.71,WNW,282,4.5,4.9,46,0.00,,---,0.00,VWS V14.01,2013-11-12 05:40:00,
2013-11-11 23:46:00,8.8,-7.8,30.71,WNW,285,4.0,4.0,46,0.00,,---,0.00,VWS V14.01,2013-11-12 05:46:00,
2013-11-11 23:52:00,8.8,-7.8,30.71,WNW,290,5.4,5.4,46,0.00,,---,0.00,VWS V14.01,2013-11-12 05:52:00,
2013-11-11 23:58:00,8.6,-7.9,30.71,WNW,295,3.1,4.0,46,0.00,,---,0.00,VWS V14.01,2013-11-12 05:58:00,